Time;durP1;ratioP1;P1;durP2;ratioP2;P2;SDS_P1;SDS_P2;PMS_P1;PMS_P2;Temp;Humidity;BMP_temperature;BMP_pressure;BME280_temperature;BME280_humidity;BME280_pressure;Samples;Min_cycle;Max_cycle;Signal;HPM_P1;HPM_P2
2021/12/08 00:00:45;;;;;;;4.82;3.00;;;;;;;-0.46;87.52;94232.69;5008396;28;20037;-62
2021/12/08 00:03:13;;;;;;;4.93;3.22;;;;;;;-0.54;86.94;94227.91;5007734;28;20038;-57
2021/12/08 00:05:44;;;;;;;4.75;2.92;;;;;;;-0.68;87.16;94213.13;5008397;28;20026;-59
2021/12/08 00:08:13;;;;;;;3.90;2.83;;;;;;;-0.66;87.16;94216.44;5007784;28;20104;-58
2021/12/08 00:11:03;;;;;;;5.85;3.22;;;;;;;-0.70;86.73;94203.94;5007750;28;20061;-60
2021/12/08 00:13:31;;;;;;;4.07;3.08;;;;;;;-0.83;86.66;94185.78;5007855;28;20037;-61
2021/12/08 00:16:01;;;;;;;4.47;3.03;;;;;;;-0.59;86.06;94240.72;5008345;28;20100;-62
2021/12/08 00:18:31;;;;;;;4.80;3.22;;;;;;;-0.62;86.63;94233.19;5008164;28;20030;-63
2021/12/08 00:20:59;;;;;;;4.90;3.17;;;;;;;-0.62;86.57;94223.06;5007606;28;20382;-59
2021/12/08 00:23:26;;;;;;;5.25;3.67;;;;;;;-0.45;86.61;94252.09;5007836;28;20291;-59
2021/12/08 00:25:52;;;;;;;5.72;3.60;;;;;;;-0.43;87.28;94257.94;5008239;28;20069;-59
2021/12/08 00:28:20;;;;;;;5.78;3.00;;;;;;;-0.81;86.14;94184.03;5008025;28;20022;-56
2021/12/08 00:30:49;;;;;;;6.68;3.97;;;;;;;-0.41;85.64;94257.00;5008058;28;20041;-61
2021/12/08 00:33:16;;;;;;;4.15;2.92;;;;;;;-0.63;85.75;94218.06;5006967;28;20045;-58
2021/12/08 00:35:44;;;;;;;4.57;3.22;;;;;;;-0.42;85.77;94267.19;5007985;28;20049;-61
2021/12/08 00:38:10;;;;;;;5.22;3.03;;;;;;;-0.84;85.57;94206.91;5007677;28;20121;-64
2021/12/08 00:40:36;;;;;;;4.70;3.03;;;;;;;-0.49;86.04;94271.63;5008219;28;20120;-61
2021/12/08 00:43:03;;;;;;;7.28;4.00;;;;;;;-0.49;85.70;94268.25;5008434;28;20068;-61
2021/12/08 00:45:29;;;;;;;6.28;4.97;;;;;;;-0.58;85.98;94254.19;5011281;28;20087;-63
2021/12/08 00:47:56;;;;;;;5.95;3.80;;;;;;;-0.50;84.66;94266.63;5011583;28;20026;-63
2021/12/08 00:50:25;;;;;;;5.10;3.60;;;;;;;-0.51;85.25;94278.44;5011569;28;20033;-63
2021/12/08 00:52:51;;;;;;;5.18;3.63;;;;;;;-0.70;84.91;94244.47;5011298;28;20524;-59
2021/12/08 00:55:18;;;;;;;5.03;3.50;;;;;;;-0.52;85.15;94273.44;5011543;28;20429;-58
2021/12/08 00:57:44;;;;;;;6.32;3.97;;;;;;;-0.77;84.66;94221.88;5011196;28;20026;-67
2021/12/08 01:00:32;;;;;;;6.97;4.75;;;;;;;-0.41;84.43;94266.28;5011548;28;20390;-63
2021/12/08 01:02:58;;;;;;;8.20;5.53;;;;;;;-0.38;84.17;94271.25;5011033;28;20716;-64
2021/12/08 01:05:31;;;;;;;6.68;4.72;;;;;;;-0.28;84.73;94280.25;5011024;28;20029;-61
2021/12/08 01:07:57;;;;;;;7.05;4.18;;;;;;;-0.36;83.67;94267.00;5011126;28;20046;-62
2021/12/08 01:10:25;;;;;;;5.75;3.80;;;;;;;-0.22;83.36;94281.75;5010679;28;20033;-64
2021/12/08 01:12:52;;;;;;;5.20;3.90;;;;;;;-0.24;83.74;94293.63;5011408;28;20037;-56
2021/12/08 01:15:18;;;;;;;6.35;3.22;;;;;;;-0.36;83.00;94289.81;5009627;28;20050;-61
2021/12/08 01:17:45;;;;;;;4.60;3.38;;;;;;;-0.39;83.07;94283.13;5011122;28;20404;-60
2021/12/08 01:20:13;;;;;;;7.10;4.38;;;;;;;-0.39;83.16;94267.09;5010340;28;20574;-59
2021/12/08 01:22:39;;;;;;;6.05;4.40;;;;;;;-0.41;82.99;94273.91;5010883;28;20033;-59
2021/12/08 01:25:05;;;;;;;5.93;4.25;;;;;;;-0.44;82.81;94269.78;5010521;28;20029;-59
2021/12/08 01:27:33;;;;;;;6.20;4.10;;;;;;;-0.32;82.17;94282.94;5011075;28;20064;-56
2021/12/08 01:29:59;;;;;;;7.70;4.68;;;;;;;-0.31;82.69;94284.56;5011124;28;20624;-61
2021/12/08 01:32:24;;;;;;;7.05;5.22;;;;;;;-0.28;82.21;94284.47;5010245;28;20037;-62
2021/12/08 01:34:52;;;;;;;7.53;5.63;;;;;;;-0.25;83.14;94287.72;5010469;28;20030;-61
2021/12/08 01:37:18;;;;;;;8.43;6.10;;;;;;;-0.16;82.25;94285.75;5010326;28;20140;-58
2021/12/08 01:39:43;;;;;;;8.15;5.55;;;;;;;-0.46;82.25;94258.88;5009950;28;20045;-58
2021/12/08 01:42:15;;;;;;;7.85;5.55;;;;;;;-0.30;83.01;94293.81;5010504;28;20025;-58
2021/12/08 01:47:27;;;;;;;9.63;6.10;;;;;;;-0.39;82.63;94269.63;5010331;28;20142;-56
2021/12/08 01:49:52;;;;;;;10.65;6.85;;;;;;;-0.40;82.00;94281.44;5010822;28;20032;-64
2021/12/08 01:52:18;;;;;;;9.75;6.15;;;;;;;-0.23;82.20;94301.19;5010494;28;20740;-66
2021/12/08 01:54:43;;;;;;;12.43;5.72;;;;;;;-0.29;81.99;94286.19;5009850;28;20388;-66
2021/12/08 01:57:09;;;;;;;9.00;5.88;;;;;;;-0.09;81.63;94303.25;5009553;28;20124;-58
2021/12/08 01:59:35;;;;;;;7.72;5.65;;;;;;;-0.13;81.15;94319.47;5010311;28;20029;-57
2021/12/08 02:02:00;;;;;;;9.13;6.60;;;;;;;-0.25;81.57;94285.19;5009956;28;20025;-60
2021/12/08 02:04:26;;;;;;;8.93;5.65;;;;;;;-0.39;80.81;94265.38;5009844;28;20478;-59
2021/12/08 02:06:51;;;;;;;10.57;7.30;;;;;;;-0.20;80.89;94295.19;5024688;28;20034;-61
2021/12/08 02:09:18;;;;;;;10.00;7.40;;;;;;;-0.06;81.67;94299.81;5009690;28;20034;-60
2021/12/08 02:11:46;;;;;;;11.27;6.63;;;;;;;-0.29;81.09;94273.50;5010113;28;20864;-62
2021/12/08 02:14:12;;;;;;;9.73;6.78;;;;;;;-0.01;80.75;94321.56;5009998;28;20077;-59
2021/12/08 02:16:38;;;;;;;9.80;6.95;;;;;;;-0.09;81.27;94332.84;5009882;28;20045;-59
2021/12/08 02:19:05;;;;;;;12.18;7.70;;;;;;;-0.03;80.88;94325.88;5009657;28;20056;-58
2021/12/08 02:21:33;;;;;;;10.98;6.70;;;;;;;-0.21;80.70;94307.03;5009517;28;20033;-62
2021/12/08 02:24:03;;;;;;;13.02;7.53;;;;;;;-0.09;80.95;94320.19;5009866;28;20030;-58
2021/12/08 02:26:29;;;;;;;11.82;8.27;;;;;;;0.04;80.06;94329.03;5009661;28;20104;-56
2021/12/08 02:29:01;;;;;;;14.30;9.57;;;;;;;-0.04;80.17;94320.84;5009680;28;20030;-57
2021/12/08 02:47:53;;;;;;;14.00;9.00;;;;;;;0.00;80.04;94347.78;5009328;28;20092;-63
2021/12/08 02:50:28;;;;;;;17.83;10.32;;;;;;;-0.02;80.62;94345.28;5008839;28;20037;-58
2021/12/08 02:52:55;;;;;;;18.70;12.13;;;;;;;-0.50;80.96;94259.84;5009335;28;20138;-64
2021/12/08 02:55:21;;;;;;;16.95;10.77;;;;;;;-0.04;81.12;94341.94;5009486;28;20037;-55
2021/12/08 02:57:47;;;;;;;17.05;10.15;;;;;;;-0.23;81.25;94302.88;5007861;28;20026;-60
2021/12/08 03:00:18;;;;;;;15.65;9.60;;;;;;;-0.65;81.00;94251.03;5009134;28;20566;-58
2021/12/08 03:02:44;;;;;;;18.95;11.95;;;;;;;-0.52;81.47;94270.91;5008944;28;20026;-61
2021/12/08 03:05:10;;;;;;;19.98;10.48;;;;;;;-0.05;81.44;94350.44;5008963;28;20041;-59
2021/12/08 03:07:37;;;;;;;17.10;11.68;;;;;;;-0.08;82.09;94348.00;5008075;28;20132;-59
2021/12/08 03:10:09;;;;;;;16.13;9.77;;;;;;;-0.53;81.84;94292.03;5008873;28;20032;-59
2021/12/08 03:12:34;;;;;;;19.60;11.65;;;;;;;-0.76;81.72;94246.28;5008894;28;20033;-61
2021/12/08 03:15:00;;;;;;;18.70;10.90;;;;;;;-0.05;81.44;94352.13;5008909;28;20105;-65
2021/12/08 03:17:26;;;;;;;17.83;12.75;;;;;;;-0.07;81.99;94347.13;5009243;28;20025;-61
2021/12/08 03:19:52;;;;;;;20.02;12.45;;;;;;;-0.02;81.13;94341.91;5008777;28;20553;-63
2021/12/08 03:22:17;;;;;;;16.98;9.65;;;;;;;-0.06;82.01;94341.19;5007841;28;20480;-63
2021/12/08 03:24:45;;;;;;;20.17;11.68;;;;;;;0.04;81.12;94349.31;5008813;28;20026;-60
2021/12/08 03:27:15;;;;;;;17.58;10.82;;;;;;;0.05;81.13;94363.66;5008955;28;20056;-59
2021/12/08 03:29:55;;;;;;;19.15;12.45;;;;;;;0.09;81.30;94364.38;5008820;28;20095;-57
2021/12/08 03:32:36;;;;;;;16.52;10.00;;;;;;;-0.11;82.00;94359.97;5008108;28;20030;-59
2021/12/08 03:35:04;;;;;;;22.83;13.07;;;;;;;-0.33;81.74;94331.94;5020318;28;20050;-61
2021/12/08 03:37:37;;;;;;;19.50;11.57;;;;;;;-0.09;81.90;94369.16;4988722;28;20522;-64
2021/12/08 03:40:08;;;;;;;17.75;11.77;;;;;;;-0.15;81.53;94379.47;4988987;28;20042;-63
2021/12/08 03:42:36;;;;;;;18.70;11.07;;;;;;;-0.09;81.25;94381.81;4988824;28;20026;-62
2021/12/08 03:45:08;;;;;;;20.27;13.45;;;;;;;-0.09;81.45;94368.34;5005719;28;20053;-58
2021/12/08 03:47:37;;;;;;;17.90;11.40;;;;;;;-0.09;81.93;94373.41;5008312;28;20030;-59
2021/12/08 03:50:07;;;;;;;22.45;12.15;;;;;;;0.02;81.29;94381.50;5008486;28;20045;-64
2021/12/08 03:52:32;;;;;;;18.73;11.82;;;;;;;0.05;81.11;94386.47;5008299;28;20045;-61
2021/12/08 03:54:58;;;;;;;20.30;12.80;;;;;;;0.01;80.85;94389.97;5007922;28;20044;-56
2021/12/08 03:57:24;;;;;;;21.13;12.20;;;;;;;0.10;80.28;94388.84;5008047;28;20026;-55
2021/12/08 03:59:50;;;;;;;21.25;10.82;;;;;;;-0.17;80.41;94355.09;5008119;28;20384;-60
2021/12/08 04:02:16;;;;;;;20.83;13.85;;;;;;;0.06;81.05;94393.19;5008325;28;20022;-58
2021/12/08 04:04:48;;;;;;;20.25;11.98;;;;;;;0.00;80.57;94380.72;5008071;28;20032;-59
2021/12/08 04:07:15;;;;;;;21.17;12.63;;;;;;;0.16;80.10;94404.69;5007972;28;20034;-57
2021/12/08 04:09:43;;;;;;;21.25;12.65;;;;;;;0.04;80.11;94391.59;5008082;28;20413;-56
2021/12/08 04:12:13;;;;;;;16.20;11.20;;;;;;;0.20;79.45;94404.56;5008087;28;20038;-58
2021/12/08 04:14:46;;;;;;;15.48;9.23;;;;;;;0.16;79.86;94414.84;5008152;28;20029;-60
2021/12/08 04:17:26;;;;;;;22.95;12.95;;;;;;;-0.13;79.96;94376.91;5007966;28;20044;-55
2021/12/08 04:19:54;;;;;;;23.25;13.77;;;;;;;0.12;80.33;94399.78;5012283;28;20099;-55
2021/12/08 04:22:25;;;;;;;20.75;13.60;;;;;;;0.08;80.27;94377.91;5011521;28;20038;-59
2021/12/08 04:24:53;;;;;;;19.42;12.52;;;;;;;0.10;80.37;94399.81;5012019;28;20030;-57
2021/12/08 04:27:24;;;;;;;21.42;13.55;;;;;;;-0.03;79.56;94379.09;5011508;28;20057;-62
2021/12/08 04:29:50;;;;;;;20.40;11.65;;;;;;;0.24;79.39;94418.84;5012191;28;20034;-58
2021/12/08 04:32:19;;;;;;;17.42;11.68;;;;;;;0.24;79.82;94406.16;5010306;28;20034;-59
2021/12/08 04:34:49;;;;;;;20.38;12.82;;;;;;;0.06;78.84;94384.75;5011895;28;20211;-60
2021/12/08 04:37:23;;;;;;;17.58;12.82;;;;;;;-0.01;79.25;94372.28;5011206;28;20104;-62
2021/12/08 04:40:18;;;;;;;19.17;13.05;;;;;;;0.32;79.20;94429.56;5011788;28;20038;-62
2021/12/08 04:43:07;;;;;;;41.80;18.92;;;;;;;0.37;78.90;94437.84;5011689;28;20025;-58
2021/12/08 04:49:12;;;;;;;21.25;12.70;;;;;;;0.25;79.20;94430.66;5008353;28;20046;-61
2021/12/08 05:06:48;;;;;;;18.55;11.13;;;;;;;0.02;79.22;94446.56;4855855;29;20501;-60
2021/12/08 05:09:24;;;;;;;24.20;13.73;;;;;;;0.05;80.32;94474.34;4855162;29;20113;-57
2021/12/08 05:12:20;;;;;;;19.73;12.10;;;;;;;0.04;80.09;94471.00;4855798;29;20069;-59
2021/12/08 05:15:15;;;;;;;21.83;12.25;;;;;;;0.07;79.78;94473.44;4819092;29;20047;-58
2021/12/08 05:18:26;;;;;;;19.67;12.88;;;;;;;0.03;79.68;94474.41;4779334;29;20605;-56
2021/12/08 05:21:12;;;;;;;21.55;13.20;;;;;;;0.13;79.99;94490.16;4711482;30;20064;-56
2021/12/08 05:28:01;;;;;;;24.00;15.38;;;;;;;0.15;80.21;94499.38;4674635;30;20145;-58
2021/12/08 05:30:50;;;;;;;23.08;12.88;;;;;;;0.07;79.75;94503.88;4655582;30;20053;-61
2021/12/08 05:33:14;;;;;;;18.77;11.52;;;;;;;0.00;79.93;94489.72;4656028;30;20568;-58
2021/12/08 05:35:43;;;;;;;18.30;10.38;;;;;;;-0.20;80.21;94454.81;4670611;30;20129;-56
2021/12/08 05:38:09;;;;;;;18.20;11.30;;;;;;;0.05;79.95;94497.16;4735141;30;20477;-59
2021/12/08 05:40:45;;;;;;;26.25;15.25;;;;;;;-0.01;80.26;94496.47;4746699;30;20072;-60
2021/12/08 05:43:11;;;;;;;23.88;13.57;;;;;;;0.01;79.79;94496.44;4747568;30;20105;-60
2021/12/08 05:45:38;;;;;;;22.27;13.23;;;;;;;0.03;79.70;94506.53;4764019;30;20039;-59
2021/12/08 05:48:04;;;;;;;26.08;17.13;;;;;;;-0.06;80.07;94492.44;4764569;30;20490;-63
2021/12/08 05:50:48;;;;;;;20.52;12.05;;;;;;;0.15;79.39;94508.72;4749710;30;20055;-62
2021/12/08 05:53:14;;;;;;;25.88;12.82;;;;;;;0.16;78.94;94517.97;4807563;29;20043;-57
2021/12/08 05:55:42;;;;;;;23.67;13.45;;;;;;;0.01;79.95;94513.38;4800776;29;20747;-58
2021/12/08 05:58:10;;;;;;;18.45;12.60;;;;;;;-0.07;79.74;94505.97;4859264;29;20507;-62
2021/12/08 06:00:50;;;;;;;21.30;13.00;;;;;;;-0.10;80.36;94523.81;4899878;29;20180;-59
2021/12/08 06:03:17;;;;;;;24.35;13.68;;;;;;;-0.02;79.86;94521.88;4932961;29;20047;-58
2021/12/08 06:05:46;;;;;;;21.20;11.93;;;;;;;-0.02;79.50;94535.41;4954945;28;20042;-58
2021/12/08 06:08:12;;;;;;;28.50;13.23;;;;;;;-0.08;80.26;94527.97;5010260;28;20033;-57
2021/12/08 06:10:38;;;;;;;27.27;15.52;;;;;;;0.07;80.72;94536.81;5009061;28;20033;-61
2021/12/08 06:13:07;;;;;;;26.60;15.57;;;;;;;0.20;80.02;94546.59;5009605;28;20041;-57
2021/12/08 06:15:34;;;;;;;25.85;15.50;;;;;;;0.26;80.08;94537.06;5008904;28;20029;-57
2021/12/08 06:17:59;;;;;;;22.85;13.75;;;;;;;0.30;79.50;94548.81;5009637;28;20099;-58
2021/12/08 06:20:25;;;;;;;25.42;13.93;;;;;;;0.26;79.55;94551.47;5006640;28;20452;-63
2021/12/08 06:22:54;;;;;;;28.00;15.65;;;;;;;0.14;79.29;94567.91;5007493;28;20123;-62
2021/12/08 06:25:21;;;;;;;25.52;15.27;;;;;;;0.17;79.90;94550.06;5006910;28;20064;-62
2021/12/08 06:27:47;;;;;;;23.10;12.40;;;;;;;0.19;79.12;94563.50;5010003;28;20065;-56
2021/12/08 06:30:18;;;;;;;17.55;11.07;;;;;;;0.22;79.48;94563.41;5009744;28;20028;-59
2021/12/08 06:32:43;;;;;;;22.75;13.77;;;;;;;0.35;79.87;94566.41;5009334;28;20034;-58
2021/12/08 06:35:15;;;;;;;19.92;11.60;;;;;;;0.29;77.63;94564.06;5003384;28;20423;-56
2021/12/08 06:37:43;;;;;;;26.40;14.35;;;;;;;0.15;78.98;94559.41;4998758;28;20061;-54
2021/12/08 06:40:16;;;;;;;21.45;12.70;;;;;;;0.21;78.91;94558.41;5002510;28;20041;-53
2021/12/08 06:42:45;;;;;;;23.92;14.50;;;;;;;0.17;79.19;94561.03;5004571;28;20029;-59
2021/12/08 06:45:15;;;;;;;22.13;11.85;;;;;;;0.12;79.19;94552.72;5004523;28;20026;-59
2021/12/08 06:47:44;;;;;;;23.95;13.60;;;;;;;-1.30;79.16;94363.44;5004861;28;20053;-58
2021/12/08 06:50:29;;;;;;;;;;;;;;;;;;;;;
2021/12/08 06:52:56;;;;;;;23.33;13.85;;;;;;;0.14;79.06;94555.22;5005618;28;20042;-63
2021/12/08 06:55:42;;;;;;;15.40;10.93;;;;;;;0.21;78.88;94556.69;5006405;28;20111;-62
2021/12/08 06:58:13;;;;;;;21.13;11.98;;;;;;;0.20;79.31;94555.03;5004784;28;20215;-62
2021/12/08 07:11:46;;;;;;;;;;;;;;;;;;;;;
2021/12/08 07:14:25;;;;;;;19.80;10.48;;;;;;;-0.20;78.04;94548.59;4827459;29;20071;-56
2021/12/08 07:17:02;;;;;;;21.27;10.30;;;;;;;-0.14;78.29;94572.94;4869047;29;20586;-60
2021/12/08 07:20:44;;;;;;;;;;;;;;;;;;;;;
2021/12/08 07:23:37;;;;;;;19.45;12.07;;;;;;;0.09;78.69;94572.28;4848252;29;20086;-63
2021/12/08 07:26:16;;;;;;;19.23;10.88;;;;;;;0.14;77.88;94590.72;4826820;29;20052;-65
2021/12/08 07:29:06;;;;;;;;;;;;;;;;;;;;;
2021/12/08 07:32:03;;;;;;;21.05;13.18;;;;;;;0.26;77.76;94594.59;4829745;29;20517;-65
2021/12/08 07:34:28;;;;;;;24.98;15.55;;;;;;;0.17;77.76;94566.09;4785259;29;20502;-61
2021/12/08 07:37:00;;;;;;;19.30;10.43;;;;;;;0.40;76.46;94605.16;4787365;29;20059;-62
2021/12/08 07:39:30;;;;;;;15.88;9.40;;;;;;;0.28;77.05;94596.22;4777603;29;20584;-62
2021/12/08 07:42:03;;;;;;;24.85;14.18;;;;;;;0.48;77.00;94602.41;4759590;30;20166;-66
2021/12/08 07:44:29;;;;;;;19.73;13.32;;;;;;;0.58;76.53;94606.31;4808881;29;20057;-61
2021/12/08 07:47:00;;;;;;;25.80;14.07;;;;;;;0.58;76.18;94605.50;4849830;29;20049;-62
2021/12/08 07:49:30;;;;;;;25.08;15.32;;;;;;;0.46;76.41;94587.22;4858236;29;20666;-62
2021/12/08 07:52:09;;;;;;;22.88;13.98;;;;;;;0.28;75.82;94558.16;4859707;29;20046;-62
2021/12/08 07:54:36;;;;;;;21.65;14.45;;;;;;;0.68;75.72;94606.84;4852402;29;20060;-60
2021/12/08 07:57:06;;;;;;;19.92;12.30;;;;;;;0.67;75.13;94617.88;4853420;29;20116;-64
2021/12/08 07:59:33;;;;;;;21.50;13.88;;;;;;;0.54;75.22;94623.34;4853277;29;20065;-61
2021/12/08 08:02:06;;;;;;;20.45;13.77;;;;;;;0.41;75.61;94595.84;4867036;29;20138;-60
2021/12/08 08:04:35;;;;;;;22.02;14.07;;;;;;;0.54;75.70;94630.09;4942476;28;20051;-61
2021/12/08 08:07:03;;;;;;;23.02;13.68;;;;;;;0.49;75.98;94620.13;4942011;28;20067;-61
2021/12/08 08:09:35;;;;;;;21.05;14.57;;;;;;;0.60;75.41;94639.25;4943244;28;20039;-63
2021/12/08 08:12:04;;;;;;;23.60;15.90;;;;;;;0.33;75.47;94593.53;4980123;28;20161;-61
2021/12/08 08:14:38;;;;;;;20.15;12.05;;;;;;;0.63;75.57;94639.16;4988819;28;20109;-63
2021/12/08 08:17:06;;;;;;;18.65;11.55;;;;;;;0.35;75.63;94615.44;4989822;28;20031;-61
2021/12/08 08:19:33;;;;;;;17.98;12.38;;;;;;;0.47;75.20;94644.69;4988194;28;20042;-61
2021/12/08 08:22:04;;;;;;;14.25;8.45;;;;;;;0.40;75.01;94622.09;4988007;28;20030;-60
2021/12/08 08:24:30;;;;;;;21.63;13.05;;;;;;;0.21;74.78;94588.81;5007956;28;20053;-60
2021/12/08 08:26:59;;;;;;;22.58;14.30;;;;;;;0.32;75.71;94632.47;5008266;28;20593;-61
2021/12/08 08:29:26;;;;;;;21.55;11.63;;;;;;;0.38;75.81;94647.50;5008527;28;20738;-68
2021/12/08 08:32:03;;;;;;;21.75;11.98;;;;;;;0.36;76.28;94639.94;5023217;28;20022;-59
2021/12/08 08:34:36;;;;;;;26.60;15.25;;;;;;;0.40;75.94;94650.00;5007169;28;20048;-61
2021/12/08 08:37:03;;;;;;;25.98;16.25;;;;;;;0.41;76.00;94646.56;5007746;28;20092;-62
2021/12/08 08:39:35;;;;;;;22.45;13.50;;;;;;;0.38;75.63;94624.69;5007953;28;20038;-62
2021/12/08 08:42:07;;;;;;;19.05;11.85;;;;;;;0.43;74.50;94638.03;5007839;28;20116;-62
2021/12/08 08:44:45;;;;;;;25.55;14.70;;;;;;;0.68;74.69;94650.00;5007096;28;20034;-62
2021/12/08 08:47:17;;;;;;;18.65;11.45;;;;;;;0.75;73.19;94641.31;5007900;28;20497;-61
2021/12/08 08:49:45;;;;;;;24.90;15.18;;;;;;;0.78;74.05;94635.31;5007555;28;20052;-67
2021/12/08 08:52:16;;;;;;;15.05;9.77;;;;;;;0.43;73.22;94597.47;5008044;28;20481;-66
2021/12/08 08:54:45;;;;;;;21.70;12.93;;;;;;;0.63;74.42;94621.41;5007503;28;20022;-64
2021/12/08 08:57:26;;;;;;;20.27;11.32;;;;;;;0.49;73.73;94593.88;5007754;28;20041;-67
2021/12/08 08:59:57;;;;;;;;;;;;;;;0.82;73.13;94636.88;5008031;28;20042;-61
2021/12/08 09:02:37;;;;;;;20.38;11.50;;;;;;;0.53;74.04;94611.50;5007590;28;20387;-60
2021/12/08 09:05:12;;;;;;;19.10;11.00;;;;;;;0.49;73.58;94629.41;5009783;28;20492;-61
2021/12/08 09:07:41;;;;;;;19.55;11.55;;;;;;;0.55;73.78;94630.06;5011208;28;20034;-59
2021/12/08 09:10:20;;;;;;;20.23;13.32;;;;;;;0.63;73.85;94601.09;5010996;28;20033;-62
2021/12/08 09:12:56;;;;;;;14.65;10.38;;;;;;;0.82;73.38;94630.09;5011296;28;20535;-62
2021/12/08 09:15:52;;;;;;;24.75;14.15;;;;;;;0.98;72.89;94622.00;5011005;28;20061;-62
2021/12/08 09:18:30;;;;;;;20.90;13.40;;;;;;;1.06;72.40;94609.88;4991768;28;20022;-59
2021/12/08 09:20:58;;;;;;;16.55;10.88;;;;;;;1.22;71.72;94611.03;4991054;28;20521;-62
2021/12/08 09:23:56;;;;;;;22.15;14.25;;;;;;;0.91;71.28;94524.88;4991412;28;20489;-61
2021/12/08 09:26:23;;;;;;;22.75;13.93;;;;;;;1.59;70.65;94599.63;4994265;28;20038;-61
2021/12/08 09:28:59;;;;;;;22.65;14.43;;;;;;;1.69;70.10;94589.97;5010989;28;20030;-62
2021/12/08 09:31:32;;;;;;;19.77;12.52;;;;;;;1.73;70.19;94593.25;5010702;28;20073;-61
2021/12/08 09:34:12;;;;;;;22.98;15.05;;;;;;;1.72;69.92;94553.44;5010640;28;20034;-64
2021/12/08 09:36:44;;;;;;;17.58;12.90;;;;;;;1.97;68.81;94566.94;5010304;28;20033;-62
2021/12/08 09:39:29;;;;;;;25.75;15.07;;;;;;;2.15;68.27;94567.97;5010032;28;20034;-67
2021/12/08 09:42:19;;;;;;;23.42;16.13;;;;;;;2.43;68.05;94578.78;5010596;28;20038;-62
2021/12/08 09:44:50;;;;;;;18.80;12.40;;;;;;;2.68;66.79;94576.16;5009734;28;20045;-62
2021/12/08 09:47:16;;;;;;;20.02;12.80;;;;;;;2.68;66.06;94587.16;5010591;28;20053;-62
2021/12/08 09:49:42;;;;;;;25.48;14.43;;;;;;;2.75;66.18;94573.31;5009852;28;20424;-62
2021/12/08 09:52:08;;;;;;;23.40;15.05;;;;;;;2.65;66.48;94561.81;5010472;28;20183;-62
2021/12/08 09:54:37;;;;;;;25.17;16.02;;;;;;;2.68;66.39;94568.50;5010266;28;20105;-64
2021/12/08 09:57:07;;;;;;;23.30;13.90;;;;;;;2.98;65.45;94570.72;5009724;28;20037;-63
2021/12/08 09:59:34;;;;;;;20.02;12.48;;;;;;;2.94;64.63;94577.66;5009814;28;20022;-59
2021/12/08 10:02:07;;;;;;;19.48;14.23;;;;;;;2.99;65.13;94580.84;5008799;28;20041;-63
2021/12/08 10:04:33;;;;;;;19.92;13.90;;;;;;;2.88;66.06;94557.53;5010175;28;20116;-61
2021/12/08 10:07:00;;;;;;;21.83;13.90;;;;;;;2.94;65.74;94568.28;5010043;28;20096;-63
2021/12/08 10:09:25;;;;;;;22.50;13.57;;;;;;;3.22;64.41;94574.00;5009192;28;20048;-60
2021/12/08 10:11:55;;;;;;;24.65;15.65;;;;;;;3.17;64.39;94571.63;5008903;28;20053;-62
2021/12/08 10:14:21;;;;;;;19.75;13.85;;;;;;;2.66;65.02;94553.28;5009493;28;20033;-61
2021/12/08 10:16:50;;;;;;;18.77;12.57;;;;;;;2.36;64.88;94507.81;5009292;28;20024;-60
2021/12/08 10:19:17;;;;;;;24.42;16.25;;;;;;;2.88;65.93;94588.09;5009968;28;20030;-60
2021/12/08 10:21:43;;;;;;;20.67;14.80;;;;;;;2.85;66.17;94568.66;5009651;28;20032;-61
2021/12/08 10:24:21;;;;;;;20.05;13.25;;;;;;;2.68;65.97;94563.41;5008620;28;20040;-62
2021/12/08 10:26:51;;;;;;;22.92;15.20;;;;;;;2.37;65.86;94501.81;5009006;28;20045;-64
2021/12/08 10:29:26;;;;;;;22.83;15.70;;;;;;;2.96;66.07;94567.41;5009048;28;20048;-62
2021/12/08 10:31:54;;;;;;;23.50;14.18;;;;;;;2.96;65.54;94555.50;5009513;28;20126;-64
2021/12/08 10:34:24;;;;;;;25.45;15.63;;;;;;;2.78;65.35;94540.97;5009392;28;20045;-61
2021/12/08 10:37:00;;;;;;;23.48;15.40;;;;;;;3.08;65.58;94566.91;5009401;28;20057;-62
2021/12/08 10:39:31;;;;;;;23.13;15.60;;;;;;;3.03;65.03;94563.72;5009489;28;20038;-61
2021/12/08 10:42:13;;;;;;;22.13;15.63;;;;;;;2.92;65.83;94570.09;5002581;28;20520;-61
2021/12/08 10:44:47;;;;;;;;;;;;;;;3.34;64.28;94563.28;5009081;28;20417;-61
2021/12/08 10:47:24;;;;;;;26.85;17.00;;;;;;;3.36;64.22;94532.63;5009678;28;20355;-64
2021/12/08 10:55:17;;;;;;;26.30;18.13;;;;;;;3.75;63.23;94554.75;5009616;28;20045;-64
2021/12/08 10:57:46;;;;;;;23.10;14.88;;;;;;;3.67;61.90;94558.47;5008960;28;20037;-63
2021/12/08 11:00:20;;;;;;;22.70;14.55;;;;;;;3.90;61.37;94555.78;5009387;28;20105;-60
2021/12/08 11:02:57;;;;;;;19.25;13.20;;;;;;;4.06;60.46;94554.22;5009259;28;20048;-66
2021/12/08 11:05:25;;;;;;;21.52;14.15;;;;;;;4.31;59.71;94564.16;5008972;28;20041;-63
2021/12/08 11:08:19;;;;;;;24.73;13.88;;;;;;;4.19;60.07;94555.31;5009238;28;20042;-61
2021/12/08 11:11:06;;;;;;;19.77;13.20;;;;;;;4.91;57.13;94537.53;5008574;28;20561;-64
2021/12/08 11:13:42;;;;;;;23.50;15.95;;;;;;;5.60;56.96;94546.88;5009026;28;20062;-62
2021/12/08 11:16:12;;;;;;;22.67;15.05;;;;;;;6.14;54.05;94548.41;5008712;28;20709;-62
2021/12/08 11:18:41;;;;;;;22.58;14.75;;;;;;;5.91;54.86;94550.41;5008560;28;20030;-59
2021/12/08 11:21:15;;;;;;;22.40;15.85;;;;;;;5.82;56.13;94550.88;5008379;28;20030;-61
2021/12/08 11:23:44;;;;;;;19.25;13.43;;;;;;;6.02;54.46;94555.81;5008549;28;20030;-63
2021/12/08 11:26:29;;;;;;;19.58;13.57;;;;;;;6.33;52.92;94553.34;5008125;28;20044;-61
2021/12/08 11:29:00;;;;;;;18.70;14.05;;;;;;;7.33;50.40;94555.53;5007989;28;20030;-62
2021/12/08 11:31:34;;;;;;;19.38;13.80;;;;;;;7.82;49.07;94529.53;5007488;28;20450;-64
2021/12/08 11:34:03;;;;;;;18.65;13.40;;;;;;;9.29;44.40;94430.34;5008191;28;20034;-60
2021/12/08 11:36:35;;;;;;;21.77;13.60;;;;;;;11.44;39.46;94524.38;5023225;28;20042;-65
2021/12/08 11:39:16;;;;;;;25.15;17.63;;;;;;;11.29;40.55;94516.84;5007358;28;20046;-61
2021/12/08 11:41:45;;;;;;;21.02;16.25;;;;;;;11.17;40.46;94541.78;5008482;28;20044;-62
2021/12/08 11:44:19;;;;;;;20.90;15.35;;;;;;;12.42;37.84;94542.78;5008543;28;20136;-61
2021/12/08 11:47:04;;;;;;;18.50;14.18;;;;;;;14.12;33.97;94527.34;5007146;28;20428;-60
2021/12/08 11:49:30;;;;;;;21.23;16.05;;;;;;;12.89;36.12;94521.88;5008300;28;20127;-63
2021/12/08 11:52:06;;;;;;;20.52;15.27;;;;;;;11.77;37.38;94555.44;5008067;28;20140;-61
2021/12/08 11:54:48;;;;;;;20.45;14.98;;;;;;;12.88;36.53;94548.69;5008497;28;20036;-64
2021/12/08 11:57:18;;;;;;;24.20;17.67;;;;;;;12.12;36.81;94522.72;5008216;28;20030;-64
2021/12/08 11:59:46;;;;;;;23.02;16.42;;;;;;;9.93;41.40;94557.28;5006970;28;20108;-62
2021/12/08 12:02:14;;;;;;;26.27;19.50;;;;;;;8.61;45.52;94561.56;5007924;28;20034;-63
2021/12/08 12:04:48;;;;;;;24.20;17.50;;;;;;;7.25;48.07;94560.28;5008549;28;20041;-63
2021/12/08 12:07:15;;;;;;;24.70;18.02;;;;;;;6.95;49.03;94512.38;5007599;28;20048;-63
2021/12/08 12:09:43;;;;;;;21.48;16.48;;;;;;;6.39;49.04;94504.38;5008400;28;20080;-65
2021/12/08 12:12:09;;;;;;;20.75;15.73;;;;;;;5.59;51.55;94483.84;5008258;28;20551;-65
2021/12/08 12:14:35;;;;;;;27.02;17.90;;;;;;;5.94;53.13;94590.38;5008486;28;20034;-61
2021/12/08 12:17:01;;;;;;;20.25;15.00;;;;;;;5.51;52.27;94539.69;5008205;28;20080;-61
2021/12/08 12:19:33;;;;;;;23.88;16.50;;;;;;;5.51;53.68;94572.94;5039931;28;20022;-65
2021/12/08 12:22:31;;;;;;;23.50;17.42;;;;;;;5.17;55.80;94582.25;5007452;28;20479;-62
2021/12/08 12:25:15;;;;;;;24.65;16.10;;;;;;;4.72;57.11;94593.75;4988340;28;20042;-62
2021/12/08 12:28:00;;;;;;;23.88;16.90;;;;;;;4.84;57.15;94577.88;4988626;28;20026;-64
2021/12/08 12:30:44;;;;;;;24.63;15.45;;;;;;;4.59;57.91;94602.00;4988475;28;20508;-64
2021/12/08 12:33:22;;;;;;;25.85;17.15;;;;;;;4.33;58.57;94599.81;4992259;28;20045;-64
2021/12/08 12:35:56;;;;;;;23.05;16.20;;;;;;;4.56;57.45;94599.59;5007986;28;20133;-63
2021/12/08 12:38:34;;;;;;;25.98;17.73;;;;;;;6.25;52.96;94575.09;5007747;28;20046;-66
2021/12/08 12:41:01;;;;;;;22.85;14.82;;;;;;;6.27;51.16;94577.56;5010383;28;20037;-69
2021/12/08 12:43:36;;;;;;;23.40;16.20;;;;;;;7.13;51.06;94584.84;5011639;28;20104;-67
2021/12/08 12:46:14;;;;;;;25.60;16.88;;;;;;;9.80;43.88;94576.25;4991952;28;20362;-62
2021/12/08 12:48:41;;;;;;;21.17;15.35;;;;;;;11.19;39.90;94524.44;4992079;28;20138;-63
2021/12/08 12:51:09;;;;;;;22.20;16.20;;;;;;;12.19;37.82;94575.59;4990850;28;20042;-61